Time;durP1;ratioP1;P1;durP2;ratioP2;P2;SDS_P1;SDS_P2;PMS_P1;PMS_P2;Temp;Humidity;BMP_temperature;BMP_pressure;BME280_temperature;BME280_humidity;BME280_pressure;Samples;Min_cycle;Max_cycle;Signal;HPM_P1;HPM_P2
2022/10/03 00:02:24;;;;;;;;;;;19.80;92.20;;;;;;4997851;28;20296;-64
2022/10/03 00:05:00;;;;;;;;;;;19.80;92.30;;;;;;5002985;28;19925;-62
2022/10/03 00:07:28;;;;;;;;;;;19.70;92.20;;;;;;4986076;28;19972;-63
2022/10/03 00:10:12;;;;;;;;;;;19.60;92.10;;;;;;4996726;28;19925;-62
2022/10/03 00:12:48;;;;;;;;;;;19.80;92.10;;;;;;5003209;28;19929;-62
2022/10/03 00:15:25;;;;;;;;;;;19.70;92.10;;;;;;5000982;28;19926;-62
2022/10/03 00:17:54;;;;;;;;;;;19.70;92.10;;;;;;4993979;28;19926;-62
2022/10/03 00:20:29;;;;;;;;;;;19.60;92.10;;;;;;5000757;28;20016;-62
2022/10/03 00:23:24;;;;;;;;;;;19.40;92.00;;;;;;5032436;28;19925;-65
2022/10/03 00:26:30;;;;;;;;;;;19.60;92.10;;;;;;4989331;28;19930;-62
2022/10/03 00:28:55;;;;;;;;;;;;;;;;;;4985233;28;19926;-64
2022/10/03 00:31:22;;;;;;;;;;;19.60;92.10;;;;;;4983147;28;19926;-62
2022/10/03 00:33:49;;;;;;;;;;;19.60;92.00;;;;;;4991973;28;20014;-62
2022/10/03 00:36:15;;;;;;;;;;;19.70;92.10;;;;;;4972377;28;19981;-62
2022/10/03 00:38:41;;;;;;;;;;;;;;;;;;4984933;28;20412;-63
2022/10/03 00:41:18;;;;;;;;;;;19.50;92.00;;;;;;4991299;28;19933;-62
2022/10/03 00:43:45;;;;;;;;;;;;;;;;;;4984234;28;19960;-62
2022/10/03 00:46:17;;;;;;;;;;;19.60;92.00;;;;;;4980560;28;20406;-64
2022/10/03 00:48:42;;;;;;;;;;;19.50;92.00;;;;;;4985209;28;19933;-61
2022/10/03 00:51:08;;;;;;;;;;;19.50;92.00;;;;;;4977305;28;19960;-62
2022/10/03 00:53:58;;;;;;;;;;;19.40;92.00;;;;;;4972416;28;19930;-62
2022/10/03 00:56:29;;;;;;;;;;;19.70;92.00;;;;;;4985951;28;19926;-62
2022/10/03 00:59:14;;;;;;;;;;;19.80;92.10;;;;;;4991579;28;19933;-62
2022/10/03 01:01:43;;;;;;;;;;;19.40;92.00;;;;;;5004888;28;19929;-62
2022/10/03 01:04:27;;;;;;;;;;;19.40;92.00;;;;;;5024306;28;19983;-67
2022/10/03 01:06:58;;;;;;;;;;;19.60;92.00;;;;;;5028827;28;20302;-62
2022/10/03 01:09:41;;;;;;;;;;;19.60;92.00;;;;;;5039635;28;19932;-62
2022/10/03 01:12:07;;;;;;;;;;;19.70;92.00;;;;;;5065882;28;20350;-62
2022/10/03 01:14:46;;;;;;;;;;;19.80;92.10;;;;;;5073925;28;19994;-62
2022/10/03 01:17:15;;;;;;;;;;;19.50;92.00;;;;;;5064657;28;20401;-62
2022/10/03 01:19:56;;;;;;;;;;;19.60;92.00;;;;;;5068515;28;20016;-62
2022/10/03 01:22:34;;;;;;;;;;;19.70;92.00;;;;;;5069233;28;19925;-62
2022/10/03 01:25:15;;;;;;;;;;;19.50;92.00;;;;;;5064331;28;20374;-62
2022/10/03 01:30:41;;;;;;;;;;;19.50;91.90;;;;;;5069388;28;19928;-62
2022/10/03 01:33:10;;;;;;;;;;;19.60;92.00;;;;;;5046922;28;19925;-61
2022/10/03 01:35:44;;;;;;;;;;;19.70;92.00;;;;;;5067544;28;19928;-62
2022/10/03 01:38:18;;;;;;;;;;;19.70;92.00;;;;;;5069911;28;19928;-64
2022/10/03 01:41:03;;;;;;;;;;;19.70;92.00;;;;;;5063777;28;19927;-62
2022/10/03 01:43:33;;;;;;;;;;;19.80;92.00;;;;;;5069205;28;20290;-62
2022/10/03 01:45:59;;;;;;;;;;;19.90;92.00;;;;;;5064728;28;19928;-62
2022/10/03 01:48:25;;;;;;;;;;;19.70;92.00;;;;;;5071331;28;19924;-62
2022/10/03 01:51:06;;;;;;;;;;;19.70;92.00;;;;;;5071903;28;20301;-62
2022/10/03 01:53:35;;;;;;;;;;;19.70;92.00;;;;;;5064643;28;20386;-62
2022/10/03 01:56:19;;;;;;;;;;;19.70;92.00;;;;;;5067413;28;19925;-63
2022/10/03 01:58:51;;;;;;;;;;;19.70;91.90;;;;;;5061080;28;19924;-62
2022/10/03 02:01:17;;;;;;;;;;;19.50;91.90;;;;;;5070612;28;19928;-62
2022/10/03 02:03:44;;;;;;;;;;;19.80;92.00;;;;;;5064559;28;19993;-62
2022/10/03 02:06:14;;;;;;;;;;;19.50;91.80;;;;;;5072178;28;19924;-62
2022/10/03 02:08:40;;;;;;;;;;;19.80;91.90;;;;;;5055493;28;19979;-62
2022/10/03 02:11:07;;;;;;;;;;;19.40;91.90;;;;;;5064771;28;19925;-62
2022/10/03 02:13:43;;;;;;;;;;;19.50;91.90;;;;;;5061946;28;19935;-65
2022/10/03 02:16:12;;;;;;;;;;;19.70;91.90;;;;;;5058490;28;19959;-62
2022/10/03 02:18:47;;;;;;;;;;;19.70;91.90;;;;;;5061731;28;19931;-62
2022/10/03 02:21:17;;;;;;;;;;;19.70;91.90;;;;;;5064101;28;19931;-62
2022/10/03 02:23:44;;;;;;;;;;;19.60;91.90;;;;;;5062366;28;19928;-62
2022/10/03 02:26:30;;;;;;;;;;;19.70;92.00;;;;;;5067152;28;20267;-62
2022/10/03 02:29:10;;;;;;;;;;;19.70;91.90;;;;;;5070643;28;19932;-62
2022/10/03 02:31:51;;;;;;;;;;;19.70;91.90;;;;;;5067587;28;19924;-62
2022/10/03 02:34:29;;;;;;;;;;;19.60;91.90;;;;;;5065043;28;19925;-62
2022/10/03 02:36:57;;;;;;;;;;;19.60;91.90;;;;;;5067603;28;19932;-62
2022/10/03 02:39:23;;;;;;;;;;;19.70;91.90;;;;;;5066881;28;19970;-62
2022/10/03 02:41:52;;;;;;;;;;;19.50;91.90;;;;;;5069535;28;20333;-63
2022/10/03 02:44:30;;;;;;;;;;;19.70;91.90;;;;;;5061855;28;19971;-62
2022/10/03 02:47:17;;;;;;;;;;;19.60;91.90;;;;;;5066159;28;20015;-62
2022/10/03 02:49:55;;;;;;;;;;;19.80;92.00;;;;;;5060471;28;19974;-62
2022/10/03 02:52:21;;;;;;;;;;;19.70;91.90;;;;;;5063788;28;19931;-62
2022/10/03 02:54:53;;;;;;;;;;;19.60;91.90;;;;;;5072928;28;19928;-62
2022/10/03 02:57:38;;;;;;;;;;;19.70;91.90;;;;;;5066403;28;19924;-62
2022/10/03 03:00:15;;;;;;;;;;;19.70;92.00;;;;;;5062545;28;19932;-62
2022/10/03 03:02:47;;;;;;;;;;;19.50;91.90;;;;;;5068679;28;19924;-63
2022/10/03 03:05:31;;;;;;;;;;;19.30;91.90;;;;;;5060852;28;19932;-63
2022/10/03 03:08:00;;;;;;;;;;;19.40;91.50;;;;;;5066242;28;20310;-65
2022/10/03 03:10:44;;;;;;;;;;;19.40;91.90;;;;;;5067888;28;19932;-62
2022/10/03 03:13:15;;;;;;;;;;;19.70;92.00;;;;;;5060667;28;20278;-64
2022/10/03 03:16:02;;;;;;;;;;;19.40;91.90;;;;;;5057011;28;20370;-62
2022/10/03 03:18:34;;;;;;;;;;;19.60;92.00;;;;;;5069238;28;20290;-62
2022/10/03 03:21:00;;;;;;;;;;;;;;;;;;5051028;28;19924;-66
2022/10/03 03:23:25;;;;;;;;;;;19.30;91.90;;;;;;5055290;28;19927;-63
2022/10/03 03:25:58;;;;;;;;;;;19.80;92.00;;;;;;5066438;28;20294;-62
2022/10/03 03:28:39;;;;;;;;;;;19.90;92.00;;;;;;5047560;28;20414;-63
2022/10/03 03:31:20;;;;;;;;;;;19.70;92.00;;;;;;5060942;28;20019;-62
2022/10/03 03:33:55;;;;;;;;;;;19.70;92.00;;;;;;5065392;28;19925;-62
2022/10/03 03:36:26;;;;;;;;;;;19.60;92.00;;;;;;5064181;28;19931;-63
2022/10/03 03:38:59;;;;;;;;;;;19.60;92.00;;;;;;5069941;28;19959;-62
2022/10/03 03:41:29;;;;;;;;;;;19.70;92.00;;;;;;5073011;28;19971;-62
2022/10/03 03:43:58;;;;;;;;;;;19.60;92.00;;;;;;5067773;28;19928;-63
2022/10/03 03:46:39;;;;;;;;;;;19.60;92.00;;;;;;5072618;28;19935;-62
2022/10/03 03:49:07;;;;;;;;;;;19.40;91.90;;;;;;5070556;28;19975;-62
2022/10/03 03:51:39;;;;;;;;;;;19.40;91.90;;;;;;5075521;28;19936;-62
2022/10/03 03:54:25;;;;;;;;;;;19.60;92.00;;;;;;5060987;28;19924;-62
2022/10/03 03:56:51;;;;;;;;;;;19.70;92.00;;;;;;5090129;28;19931;-62
2022/10/03 03:59:34;;;;;;;;;;;19.70;92.00;;;;;;5070010;28;19929;-63
2022/10/03 04:02:16;;;;;;;;;;;19.60;92.00;;;;;;5051526;28;19924;-62
2022/10/03 04:04:51;;;;;;;;;;;19.60;92.00;;;;;;5071629;28;19931;-62
2022/10/03 04:07:32;;;;;;;;;;;19.30;91.90;;;;;;5063888;28;19924;-65
2022/10/03 04:10:16;;;;;;;;;;;19.40;91.90;;;;;;5069530;28;19935;-62
2022/10/03 04:12:42;;;;;;;;;;;19.30;91.80;;;;;;5072176;28;19924;-62
2022/10/03 04:15:10;;;;;;;;;;;19.30;91.80;;;;;;5070652;28;20461;-63
2022/10/03 04:20:44;;;;;;;;;;;19.50;91.90;;;;;;5070691;28;19932;-62
2022/10/03 04:23:28;;;;;;;;;;;19.70;91.90;;;;;;5067760;28;19925;-62
2022/10/03 04:25:54;;;;;;;;;;;19.50;91.90;;;;;;5072198;28;19971;-62
2022/10/03 04:28:33;;;;;;;;;;;19.40;91.90;;;;;;5070779;28;19929;-61
2022/10/03 04:31:17;;;;;;;;;;;19.50;91.90;;;;;;5061621;28;19929;-62
2022/10/03 04:33:59;;;;;;;;;;;19.50;92.00;;;;;;5072730;28;20032;-62
2022/10/03 04:36:25;;;;;;;;;;;;;;;;;;5058147;28;19924;-65
2022/10/03 04:38:59;;;;;;;;;;;19.60;92.00;;;;;;5068402;28;19924;-62
2022/10/03 04:41:28;;;;;;;;;;;;;;;;;;5058536;28;19971;-63
2022/10/03 04:43:57;;;;;;;;;;;;;;;;;;5063135;28;20410;-63
2022/10/03 04:46:26;;;;;;;;;;;19.40;91.90;;;;;;5072515;28;20012;-62
2022/10/03 04:48:57;;;;;;;;;;;19.70;92.00;;;;;;5070087;28;19932;-62
2022/10/03 04:51:25;;;;;;;;;;;19.80;92.00;;;;;;5070395;28;20285;-62
2022/10/03 04:54:01;;;;;;;;;;;19.50;92.00;;;;;;5062504;28;19921;-62
2022/10/03 04:56:33;;;;;;;;;;;19.50;91.90;;;;;;5073122;28;19925;-62
2022/10/03 04:59:03;;;;;;;;;;;19.80;92.00;;;;;;5071200;28;19928;-62
2022/10/03 05:01:41;;;;;;;;;;;19.30;91.90;;;;;;5064139;28;20019;-62
2022/10/03 05:04:26;;;;;;;;;;;19.50;92.00;;;;;;5067554;28;19975;-62
2022/10/03 05:07:00;;;;;;;;;;;19.60;92.00;;;;;;5064123;28;19932;-62
2022/10/03 05:09:31;;;;;;;;;;;19.50;91.90;;;;;;5031938;28;20016;-61
2022/10/03 05:12:06;;;;;;;;;;;19.50;91.90;;;;;;5065620;28;19933;-62
2022/10/03 05:14:52;;;;;;;;;;;19.50;92.00;;;;;;5062896;28;20384;-62
2022/10/03 05:17:28;;;;;;;;;;;19.70;92.00;;;;;;5052359;28;19925;-62
2022/10/03 05:20:12;;;;;;;;;;;19.70;92.00;;;;;;5060016;28;19924;-62
2022/10/03 05:22:41;;;;;;;;;;;19.60;91.90;;;;;;5057233;28;20425;-61
2022/10/03 05:25:26;;;;;;;;;;;19.50;92.00;;;;;;5067345;28;19925;-62
2022/10/03 05:28:08;;;;;;;;;;;19.60;92.00;;;;;;5070412;28;19928;-61
2022/10/03 05:30:34;;;;;;;;;;;19.30;91.90;;;;;;5072462;28;19971;-62
2022/10/03 05:33:05;;;;;;;;;;;19.50;92.00;;;;;;5061978;28;19963;-62
2022/10/03 05:35:31;;;;;;;;;;;19.30;91.90;;;;;;5062028;28;20267;-62
2022/10/03 05:38:15;;;;;;;;;;;19.60;92.00;;;;;;5059249;28;19925;-62
2022/10/03 05:41:00;;;;;;;;;;;19.30;91.90;;;;;;5070307;28;19925;-61
2022/10/03 05:43:41;;;;;;;;;;;19.50;92.00;;;;;;5072326;28;19924;-61
2022/10/03 05:46:09;;;;;;;;;;;19.60;92.00;;;;;;5062611;28;19932;-62
2022/10/03 05:48:49;;;;;;;;;;;19.50;92.00;;;;;;5059073;28;19921;-62
2022/10/03 05:51:15;;;;;;;;;;;19.50;92.00;;;;;;5053198;28;19925;-62
2022/10/03 05:53:50;;;;;;;;;;;19.50;92.00;;;;;;5063121;28;19924;-62
2022/10/03 05:56:27;;;;;;;;;;;19.60;92.00;;;;;;5050491;28;20302;-61
2022/10/03 05:58:56;;;;;;;;;;;19.70;92.10;;;;;;5063405;28;19932;-62
2022/10/03 06:01:46;;;;;;;;;;;19.40;91.90;;;;;;5072840;28;19924;-62
2022/10/03 06:04:21;;;;;;;;;;;19.50;91.80;;;;;;5031194;28;20398;-65
2022/10/03 06:07:02;;;;;;;;;;;19.70;92.00;;;;;;5063732;28;19932;-62
2022/10/03 06:09:27;;;;;;;;;;;19.30;91.90;;;;;;5070205;28;20298;-63
2022/10/03 06:12:06;;;;;;;;;;;19.40;91.90;;;;;;5066148;28;19925;-62
2022/10/03 06:14:34;;;;;;;;;;;19.50;91.90;;;;;;5073468;28;19929;-62
2022/10/03 06:17:11;;;;;;;;;;;19.50;91.90;;;;;;5070168;28;19952;-62
2022/10/03 06:19:48;;;;;;;;;;;19.50;91.90;;;;;;5061023;28;19975;-62
2022/10/03 06:22:33;;;;;;;;;;;19.40;91.90;;;;;;5070778;28;19920;-63
2022/10/03 06:25:01;;;;;;;;;;;19.70;91.90;;;;;;5068214;28;19935;-62
2022/10/03 06:27:36;;;;;;;;;;;19.80;92.00;;;;;;5062519;28;19931;-62
2022/10/03 06:30:11;;;;;;;;;;;19.60;91.90;;;;;;5059885;28;19978;-62
2022/10/03 06:32:47;;;;;;;;;;;19.60;91.90;;;;;;5072070;28;19966;-62
2022/10/03 06:35:40;;;;;;;;;;;19.60;91.80;;;;;;5072255;28;20398;-65
2022/10/03 06:38:06;;;;;;;;;;;19.60;91.70;;;;;;5070258;28;20339;-61
2022/10/03 06:40:32;;;;;;;;;;;;;;;;;;5059042;28;19924;-65
2022/10/03 06:43:15;;;;;;;;;;;19.60;91.60;;;;;;5062141;28;19932;-69
2022/10/03 06:45:41;;;;;;;;;;;20.00;91.70;;;;;;5062847;28;19924;-64
2022/10/03 06:48:07;;;;;;;;;;;19.80;91.70;;;;;;5064573;28;19932;-64
2022/10/03 06:50:45;;;;;;;;;;;19.80;91.70;;;;;;5055045;28;19966;-64
2022/10/03 06:53:17;;;;;;;;;;;19.90;91.70;;;;;;5061449;28;19935;-63
2022/10/03 06:55:46;;;;;;;;;;;19.80;91.70;;;;;;5085994;28;19937;-64
2022/10/03 06:58:22;;;;;;;;;;;19.90;91.70;;;;;;5056320;28;19951;-63
2022/10/03 07:01:00;;;;;;;;;;;19.80;91.70;;;;;;5058920;28;20199;-63
2022/10/03 07:03:43;;;;;;;;;;;19.90;91.60;;;;;;5083202;28;19971;-63
2022/10/03 07:06:12;;;;;;;;;;;20.10;91.60;;;;;;5054367;28;20293;-64
2022/10/03 07:08:44;;;;;;;;;;;19.80;91.40;;;;;;5056858;28;19954;-63
2022/10/03 07:11:09;;;;;;;;;;;19.80;91.30;;;;;;5061980;28;19979;-62
2022/10/03 07:13:55;;;;;;;;;;;19.80;91.20;;;;;;5066488;28;19967;-66
2022/10/03 07:16:26;;;;;;;;;;;19.80;91.30;;;;;;5055762;28;19931;-62
2022/10/03 07:18:57;;;;;;;;;;;20.00;91.10;;;;;;5065421;28;20005;-67
2022/10/03 07:21:38;;;;;;;;;;;20.10;91.10;;;;;;5040781;28;19932;-64
2022/10/03 07:24:23;;;;;;;;;;;20.30;90.90;;;;;;5068863;28;20362;-62
2022/10/03 07:26:49;;;;;;;;;;;20.10;90.80;;;;;;5075361;28;19932;-68
2022/10/03 07:29:17;;;;;;;;;;;20.50;90.70;;;;;;5075052;28;19928;-66
2022/10/03 07:31:53;;;;;;;;;;;20.30;90.60;;;;;;5057334;28;19925;-67
2022/10/03 07:34:19;;;;;;;;;;;;;;;;;;5069030;28;19925;-63
2022/10/03 07:39:34;;;;;;;;;;;20.60;90.10;;;;;;5067763;28;19979;-66
2022/10/03 07:42:11;;;;;;;;;;;20.90;90.00;;;;;;5075059;28;20267;-66
2022/10/03 07:44:49;;;;;;;;;;;20.90;89.70;;;;;;5070058;28;19958;-64
2022/10/03 07:47:34;;;;;;;;;;;20.90;89.60;;;;;;5057660;28;19971;-66
2022/10/03 07:50:02;;;;;;;;;;;21.00;89.20;;;;;;5062222;28;20020;-66
2022/10/03 07:52:32;;;;;;;;;;;21.40;89.30;;;;;;5067288;28;20390;-62
2022/10/03 07:55:13;;;;;;;;;;;21.20;88.80;;;;;;5065180;28;19928;-67
2022/10/03 07:57:39;;;;;;;;;;;21.40;88.30;;;;;;5057524;28;19967;-64
2022/10/03 08:00:07;;;;;;;;;;;21.50;88.30;;;;;;5070900;28;19958;-62
2022/10/03 08:02:51;;;;;;;;;;;21.40;88.10;;;;;;5071648;28;19947;-63
2022/10/03 08:05:36;;;;;;;;;;;21.60;88.10;;;;;;5061340;28;19948;-63
2022/10/03 08:08:21;;;;;;;;;;;21.80;88.10;;;;;;5068836;28;19976;-65
2022/10/03 08:11:07;;;;;;;;;;;21.70;87.00;;;;;;5049099;28;20015;-64
2022/10/03 08:13:38;;;;;;;;;;;21.70;86.80;;;;;;5072352;28;19935;-62
2022/10/03 08:16:09;;;;;;;;;;;21.70;87.40;;;;;;5066207;28;19932;-62
2022/10/03 08:18:35;;;;;;;;;;;21.80;86.50;;;;;;5064413;28;19924;-63
2022/10/03 08:21:01;;;;;;;;;;;22.00;87.40;;;;;;5064617;28;20293;-65
2022/10/03 08:23:41;;;;;;;;;;;22.00;87.70;;;;;;5062352;28;19928;-66
2022/10/03 08:26:27;;;;;;;;;;;21.90;86.10;;;;;;5068831;28;20290;-62
2022/10/03 08:28:55;;;;;;;;;;;21.80;86.10;;;;;;5058763;28;19933;-62
2022/10/03 08:31:40;;;;;;;;;;;22.40;86.30;;;;;;5070085;28;19932;-62
2022/10/03 08:34:06;;;;;;;;;;;22.50;86.20;;;;;;5071720;28;19935;-62
2022/10/03 08:36:50;;;;;;;;;;;22.50;87.20;;;;;;5069954;28;19925;-66
2022/10/03 08:39:17;;;;;;;;;;;22.30;85.90;;;;;;5069377;28;19932;-65
2022/10/03 08:41:57;;;;;;;;;;;22.30;87.00;;;;;;5072136;28;20342;-64
2022/10/03 08:44:29;;;;;;;;;;;22.70;86.00;;;;;;5071140;28;19925;-62
2022/10/03 08:47:27;;;;;;;;;;;22.40;85.80;;;;;;5069607;28;20298;-65
2022/10/03 08:49:59;;;;;;;;;;;22.30;85.70;;;;;;5017820;28;19929;-65
2022/10/03 08:52:43;;;;;;;;;;;22.50;86.00;;;;;;5032806;28;20310;-65
2022/10/03 08:55:27;;;;;;;;;;;22.50;85.80;;;;;;5027765;28;19925;-66
2022/10/03 08:58:08;;;;;;;;;;;22.20;85.70;;;;;;5028366;28;19932;-67
2022/10/03 09:00:52;;;;;;;;;;;22.10;85.60;;;;;;5007317;28;19933;-65
2022/10/03 09:03:24;;;;;;;;;;;22.40;85.80;;;;;;5028072;28;19929;-65
2022/10/03 09:06:11;;;;;;;;;;;22.40;85.80;;;;;;5007171;28;19922;-65
2022/10/03 09:08:51;;;;;;;;;;;22.50;85.90;;;;;;5029979;28;19948;-66
2022/10/03 09:11:36;;;;;;;;;;;22.20;85.70;;;;;;5017046;28;19929;-65
2022/10/03 09:14:21;;;;;;;;;;;22.30;85.90;;;;;;5032435;28;20004;-65
2022/10/03 09:16:49;;;;;;;;;;;22.30;85.90;;;;;;5018044;28;19991;-65
2022/10/03 09:19:48;;;;;;;;;;;22.40;86.00;;;;;;5025992;28;19925;-64
2022/10/03 09:22:33;;;;;;;;;;;22.60;86.10;;;;;;5016433;28;20020;-66
2022/10/03 09:25:11;;;;;;;;;;;22.50;86.10;;;;;;5037533;28;19925;-63
2022/10/03 09:27:41;;;;;;;;;;;22.10;86.00;;;;;;5064582;28;19924;-65
2022/10/03 09:30:11;;;;;;;;;;;22.00;87.40;;;;;;5067596;28;19927;-65
2022/10/03 09:32:55;;;;;;;;;;;22.30;87.60;;;;;;5066372;28;20336;-66
2022/10/03 09:35:39;;;;;;;;;;;22.10;86.20;;;;;;5062923;28;19924;-64
2022/10/03 09:38:11;;;;;;;;;;;22.10;86.20;;;;;;5061612;28;19932;-66
2022/10/03 09:40:46;;;;;;;;;;;22.10;86.30;;;;;;5063765;28;19925;-65
2022/10/03 09:43:30;;;;;;;;;;;22.30;86.00;;;;;;5054845;28;19925;-65
2022/10/03 09:45:58;;;;;;;;;;;22.20;86.60;;;;;;5067314;28;19924;-62
2022/10/03 09:48:27;;;;;;;;;;;21.90;86.50;;;;;;5081774;28;19920;-63
2022/10/03 09:50:59;;;;;;;;;;;22.00;87.90;;;;;;5063749;28;19931;-62
2022/10/03 09:53:26;;;;;;;;;;;22.10;86.70;;;;;;5064960;28;19967;-63
2022/10/03 09:56:10;;;;;;;;;;;22.10;87.70;;;;;;5069819;28;19925;-65
2022/10/03 09:58:44;;;;;;;;;;;22.10;86.80;;;;;;5072856;28;19963;-66
2022/10/03 10:01:28;;;;;;;;;;;22.00;86.90;;;;;;5074307;28;19924;-71
2022/10/03 10:04:00;;;;;;;;;;;22.00;86.90;;;;;;5074023;28;20382;-67
2022/10/03 10:06:33;;;;;;;;;;;22.00;86.90;;;;;;5068808;28;20416;-67
2022/10/03 10:09:17;;;;;;;;;;;22.10;87.10;;;;;;5071182;28;19924;-66
2022/10/03 10:11:46;;;;;;;;;;;22.00;87.00;;;;;;5059895;28;19924;-65
2022/10/03 10:14:18;;;;;;;;;;;22.00;87.10;;;;;;5062593;28;19947;-65
2022/10/03 10:16:55;;;;;;;;;;;22.20;88.20;;;;;;5066772;28;19972;-64
2022/10/03 10:19:28;;;;;;;;;;;22.10;88.10;;;;;;5053925;28;19932;-63
2022/10/03 10:22:07;;;;;;;;;;;22.10;87.20;;;;;;5071114;28;19927;-67
2022/10/03 10:24:51;;;;;;;;;;;22.20;87.20;;;;;;5060476;28;19924;-64
2022/10/03 10:27:37;;;;;;;;;;;22.00;88.00;;;;;;5067053;28;20015;-63
2022/10/03 10:30:03;;;;;;;;;;;22.30;88.50;;;;;;5063092;28;19925;-64
2022/10/03 10:32:47;;;;;;;;;;;22.20;88.10;;;;;;5058112;28;20362;-64
2022/10/03 10:35:31;;;;;;;;;;;22.00;88.00;;;;;;5057809;28;19924;-64
2022/10/03 10:38:03;;;;;;;;;;;22.40;87.30;;;;;;5052804;28;19925;-63
2022/10/03 10:40:38;;;;;;;;;;;22.10;87.00;;;;;;5066074;28;19925;-62
2022/10/03 10:43:16;;;;;;;;;;;22.20;87.00;;;;;;5072522;28;19979;-64
2022/10/03 10:46:03;;;;;;;;;;;22.20;86.90;;;;;;5057656;28;19925;-65
2022/10/03 10:48:29;;;;;;;;;;;22.70;88.30;;;;;;5010155;28;19926;-68
2022/10/03 10:51:12;;;;;;;;;;;22.30;87.90;;;;;;5004384;28;19930;-68
2022/10/03 10:53:56;;;;;;;;;;;22.30;86.80;;;;;;4979100;28;20046;-64
2022/10/03 10:56:41;;;;;;;;;;;22.60;86.90;;;;;;5007045;28;19936;-66
2022/10/03 10:59:25;;;;;;;;;;;22.50;86.90;;;;;;5010908;28;19977;-66
2022/10/03 11:01:56;;;;;;;;;;;22.60;86.90;;;;;;4999600;28;19941;-66
2022/10/03 11:05:01;;;;;;;;;;;22.60;86.80;;;;;;5000553;28;20284;-65
2022/10/03 11:07:42;;;;;;;;;;;22.40;86.60;;;;;;4948133;28;19961;-63
2022/10/03 11:10:10;;;;;;;;;;;22.80;86.80;;;;;;4943314;28;19931;-63
2022/10/03 11:12:36;;;;;;;;;;;22.80;86.90;;;;;;4951542;29;20031;-62
2022/10/03 11:15:38;;;;;;;;;;;22.80;87.70;;;;;;4943494;28;19950;-64
2022/10/03 11:18:14;;;;;;;;;;;22.90;86.60;;;;;;4910706;29;20382;-63
2022/10/03 11:20:58;;;;;;;;;;;22.90;86.50;;;;;;4890541;29;19928;-63
2022/10/03 11:23:24;;;;;;;;;;;22.70;86.40;;;;;;4913664;29;19956;-63
2022/10/03 11:25:52;;;;;;;;;;;22.90;87.40;;;;;;4921550;29;19926;-62
2022/10/03 11:28:31;;;;;;;;;;;22.70;86.10;;;;;;4950252;28;20378;-63
2022/10/03 11:31:02;;;;;;;;;;;22.90;86.10;;;;;;4944450;28;19926;-66
2022/10/03 11:33:37;;;;;;;;;;;23.00;86.10;;;;;;4953050;29;19931;-63
2022/10/03 11:36:03;;;;;;;;;;;23.10;86.00;;;;;;4953124;29;19927;-64
2022/10/03 11:38:30;;;;;;;;;;;23.00;86.60;;;;;;4948780;28;19933;-62
2022/10/03 11:41:04;;;;;;;;;;;22.80;87.00;;;;;;4958768;28;20404;-63
2022/10/03 11:43:33;;;;;;;;;;;23.00;85.70;;;;;;4956114;28;20411;-62
2022/10/03 11:46:18;;;;;;;;;;;23.00;85.60;;;;;;4975254;28;19953;-62
2022/10/03 11:48:51;;;;;;;;;;;23.00;87.00;;;;;;4985151;28;20384;-62
2022/10/03 11:51:30;;;;;;;;;;;23.10;85.70;;;;;;4997012;28;19927;-63
2022/10/03 11:53:58;;;;;;;;;;;22.90;85.70;;;;;;5072087;28;19928;-65
2022/10/03 11:56:23;;;;;;;;;;;23.10;87.10;;;;;;5071721;28;19925;-64
2022/10/03 11:59:04;;;;;;;;;;;23.20;86.90;;;;;;5072759;28;19924;-65
2022/10/03 12:01:32;;;;;;;;;;;22.90;85.70;;;;;;5072350;28;20289;-65
2022/10/03 12:04:02;;;;;;;;;;;22.90;85.70;;;;;;5076589;28;20018;-63
2022/10/03 12:09:16;;;;;;;;;;;22.90;85.60;;;;;;5076382;28;19925;-62
2022/10/03 12:12:01;;;;;;;;;;;23.20;87.30;;;;;;5075417;28;19987;-61
2022/10/03 12:14:28;;;;;;;;;;;23.40;86.00;;;;;;5076717;28;19928;-65
2022/10/03 12:16:57;;;;;;;;;;;23.30;87.30;;;;;;5076393;28;20436;-64
2022/10/03 12:19:41;;;;;;;;;;;23.50;86.50;;;;;;5076592;28;20282;-65
2022/10/03 12:22:19;;;;;;;;;;;23.20;85.70;;;;;;5076648;28;20451;-66
2022/10/03 12:24:45;;;;;;;;;;;23.20;85.70;;;;;;5074254;28;19924;-66
2022/10/03 12:27:11;;;;;;;;;;;23.40;86.80;;;;;;5062068;28;20286;-65
2022/10/03 12:29:39;;;;;;;;;;;23.20;86.90;;;;;;5071483;28;20340;-63
2022/10/03 12:32:11;;;;;;;;;;;23.30;87.30;;;;;;5063816;28;22187;-64
2022/10/03 12:34:41;;;;;;;;;;;23.00;85.70;;;;;;5064021;28;20382;-63
2022/10/03 12:37:42;;;;;;;;;;;23.50;86.00;;;;;;5074638;28;20356;-62
2022/10/03 12:40:15;;;;;;;;;;;23.00;85.90;;;;;;5012464;28;19934;-63
2022/10/03 12:42:40;;;;;;;;;;;23.10;85.90;;;;;;4996998;28;19926;-63
2022/10/03 12:45:19;;;;;;;;;;;23.30;87.30;;;;;;5012094;28;20421;-62
2022/10/03 12:48:03;;;;;;;;;;;23.00;86.10;;;;;;4988953;28;19932;-63
2022/10/03 12:50:34;;;;;;;;;;;23.30;86.30;;;;;;5007123;28;19930;-62
2022/10/03 12:53:02;;;;;;;;;;;23.00;87.70;;;;;;4988883;28;19926;-63
2022/10/03 12:55:35;;;;;;;;;;;22.90;86.10;;;;;;5007867;28;20029;-64
2022/10/03 12:58:01;;;;;;;;;;;23.30;86.40;;;;;;4992177;28;19933;-63
2022/10/03 13:00:27;;;;;;;;;;;23.10;87.50;;;;;;4986061;28;19921;-62
2022/10/03 13:02:52;;;;;;;;;;;23.10;87.50;;;;;;5003455;28;20008;-64
2022/10/03 13:05:24;;;;;;;;;;;22.90;87.70;;;;;;5004607;28;19941;-62
2022/10/03 13:07:56;;;;;;;;;;;23.00;86.50;;;;;;5000741;28;19925;-68
2022/10/03 13:10:28;;;;;;;;;;;22.90;86.50;;;;;;4996230;28;20013;-63
2022/10/03 13:13:14;;;;;;;;;;;23.00;86.60;;;;;;4988156;28;19925;-64
2022/10/03 13:16:02;;;;;;;;;;;23.00;86.70;;;;;;5063260;28;20373;-64
2022/10/03 13:18:31;;;;;;;;;;;23.00;86.90;;;;;;5065535;28;19924;-63
2022/10/03 13:20:59;;;;;;;;;;;22.90;88.20;;;;;;5073143;28;20012;-63
2022/10/03 13:23:34;;;;;;;;;;;22.80;88.00;;;;;;5072280;28;19972;-66
2022/10/03 13:26:09;;;;;;;;;;;22.50;86.70;;;;;;5066160;28;19924;-63
2022/10/03 13:28:44;;;;;;;;;;;23.00;87.20;;;;;;5042170;28;19924;-69
2022/10/03 13:31:12;;;;;;;;;;;22.70;87.20;;;;;;5065443;28;19925;-63
2022/10/03 13:33:43;;;;;;;;;;;22.80;88.70;;;;;;5036843;28;19970;-66
2022/10/03 13:36:14;;;;;;;;;;;22.50;87.30;;;;;;5053217;28;19925;-66
2022/10/03 13:38:58;;;;;;;;;;;22.80;88.80;;;;;;5072166;28;19925;-66
2022/10/03 13:41:29;;;;;;;;;;;22.70;87.40;;;;;;5071781;28;19932;-68
2022/10/03 13:44:14;;;;;;;;;;;22.60;87.40;;;;;;5072024;28;19982;-65
2022/10/03 13:46:47;;;;;;;;;;;22.70;87.60;;;;;;5070767;28;19928;-66
2022/10/03 13:49:18;;;;;;;;;;;22.50;87.50;;;;;;5071909;28;19960;-64
2022/10/03 13:51:52;;;;;;;;;;;22.50;87.50;;;;;;5071348;28;19924;-63
2022/10/03 13:54:24;;;;;;;;;;;22.50;87.50;;;;;;5072463;28;19928;-63
2022/10/03 13:56:51;;;;;;;;;;;22.60;87.70;;;;;;5072745;28;19928;-62
2022/10/03 13:59:26;;;;;;;;;;;22.70;89.10;;;;;;5063303;28;19932;-63
2022/10/03 14:01:59;;;;;;;;;;;22.50;87.60;;;;;;5069221;28;19933;-63
2022/10/03 14:04:24;;;;;;;;;;;22.50;87.70;;;;;;5071366;28;20309;-63
2022/10/03 14:06:51;;;;;;;;;;;22.40;88.80;;;;;;5074331;28;19924;-64
2022/10/03 14:09:31;;;;;;;;;;;22.30;88.80;;;;;;5071519;28;19973;-62
2022/10/03 14:12:12;;;;;;;;;;;22.40;87.90;;;;;;5052898;28;20015;-62
2022/10/03 14:14:41;;;;;;;;;;;22.30;87.80;;;;;;5056923;28;20360;-62
2022/10/03 14:17:22;;;;;;;;;;;22.50;88.00;;;;;;5054388;28;20297;-62
2022/10/03 14:20:06;;;;;;;;;;;22.30;87.90;;;;;;5054132;28;19928;-62
2022/10/03 14:22:35;;;;;;;;;;;22.50;88.00;;;;;;5054101;28;20004;-63
2022/10/03 14:25:04;;;;;;;;;;;22.50;89.30;;;;;;5060846;28;19924;-64
2022/10/03 14:27:42;;;;;;;;;;;22.20;87.80;;;;;;5061144;28;19931;-63
2022/10/03 14:30:15;;;;;;;;;;;22.20;87.70;;;;;;5054223;28;19928;-63
2022/10/03 14:32:56;;;;;;;;;;;22.30;87.80;;;;;;5053975;28;19939;-62
2022/10/03 14:35:41;;;;;;;;;;;22.50;87.90;;;;;;5054998;28;20267;-62
2022/10/03 14:38:56;;;;;;;;;;;22.30;87.80;;;;;;5052893;28;19924;-62
2022/10/03 14:41:12;;;;;;;;;;;22.30;87.80;;;;;;5060474;28;20404;-61
2022/10/03 14:43:44;;;;;;;;;;;22.30;89.20;;;;;;5073955;28;19928;-63
2022/10/03 14:46:10;;;;;;;;;;;22.10;87.80;;;;;;5069298;28;19921;-62
2022/10/03 14:48:36;;;;;;;;;;;22.30;88.80;;;;;;5060157;28;19986;-62
2022/10/03 14:51:22;;;;;;;;;;;22.10;89.00;;;;;;5073518;28;20010;-63
2022/10/03 14:54:02;;;;;;;;;;;22.40;89.50;;;;;;5069108;28;19932;-62
2022/10/03 14:56:28;;;;;;;;;;;22.00;88.00;;;;;;5052425;28;19942;-62
2022/10/03 14:58:54;;;;;;;;;;;22.00;89.30;;;;;;5064987;28;19933;-62
2022/10/03 15:01:21;;;;;;;;;;;22.30;89.30;;;;;;5052793;28;20397;-63
2022/10/03 15:03:53;;;;;;;;;;;22.10;89.60;;;;;;5035842;28;19948;-65
2022/10/03 15:06:20;;;;;;;;;;;22.20;88.60;;;;;;5062474;28;19924;-62
2022/10/03 15:08:47;;;;;;;;;;;22.10;90.00;;;;;;5072666;28;20370;-62
2022/10/03 15:11:13;;;;;;;;;;;22.00;90.10;;;;;;5071217;28;20346;-65
2022/10/03 15:13:41;;;;;;;;;;;22.20;90.20;;;;;;5073597;28;19935;-62
2022/10/03 15:16:07;;;;;;;;;;;22.10;90.30;;;;;;5071974;28;19928;-63
2022/10/03 15:18:33;;;;;;;;;;;22.20;90.20;;;;;;5072332;28;19924;-63